Deep River, Iowa
Current Conditions -  °F | °C
As of 7:55 AM on Friday 31 Oct 2014 (Local Time) from KGGI Reporting Station
Clear Clear  
Wind Chill: 17°   Ceiling: Unl
Heat Index: 28°   Visibility: 10mi
Dew Point: 19°   Wind: 12mph
Humidity: 70%   Direction: 340°NNW
Pressure: 30.41"   Gusts: 22mph
Location:  41.58°N, 92.37°W
Report Text: KGGI 311255Z AUTO 34010G19KT 10SM CLR M02/M07 A3041 RMK AO2 T10251073
Loading
Personal Weather Stations






























Interactive Weather Map
Tropical Storm Tracking
New forecast layout! Learn more

10-Day Weather Forecast

Advertisements
Track Severe Weather on mobile